createdAt,value
2023-08-08T00:01:37.349Z,98099.06
2023-08-08T00:04:10.989Z,98092.28
2023-08-08T00:20:47.964Z,98084.06
2023-08-08T00:23:28.005Z,98092.13
2023-08-08T00:26:01.270Z,98094.13
2023-08-08T00:28:34.995Z,98094.22
2023-08-08T00:31:08.766Z,98101.44
2023-08-08T00:33:41.974Z,98109.63
2023-08-08T00:36:17.287Z,98115.09
2023-08-08T00:46:11.006Z,98112.88
2023-08-08T00:48:44.615Z,98112.00
2023-08-08T00:51:19.038Z,98112.00
2023-08-08T00:53:55.739Z,98099.56
2023-08-08T00:56:36.010Z,98105.94
2023-08-08T00:59:12.746Z,98098.16
2023-08-08T01:12:55.957Z,98102.81
2023-08-08T01:15:37.995Z,98101.97
2023-08-08T01:18:12.854Z,98106.50
2023-08-08T01:20:47.026Z,98104.78
2023-08-08T01:23:33.108Z,98111.13
2023-08-08T01:26:15.004Z,98105.78
2023-08-08T01:39:41.019Z,98096.97
2023-08-08T01:42:19.009Z,98102.47
2023-08-08T01:45:02.013Z,98108.81
2023-08-08T01:47:36.546Z,98108.81
2023-08-08T01:50:10.982Z,98105.44
2023-08-08T01:52:44.269Z,98102.88
2023-08-08T01:55:19.219Z,98102.06
2023-08-08T02:08:31.009Z,98078.47
2023-08-08T02:11:04.294Z,98079.31
2023-08-08T02:13:38.016Z,98082.13
2023-08-08T02:16:11.289Z,98084.94
2023-08-08T02:18:44.970Z,98095.81
2023-08-08T02:21:18.360Z,98087.06
2023-08-08T02:34:08.976Z,98078.56
2023-08-08T02:36:49.007Z,98078.56
2023-08-08T02:39:22.296Z,98077.72
2023-08-08T02:41:56.054Z,98076.88
2023-08-08T02:44:30.237Z,98077.84
2023-08-08T03:00:46.218Z,98088.38
2023-08-08T03:03:19.688Z,98085.84
2023-08-08T03:05:54.002Z,98085.00
2023-08-08T03:08:28.428Z,98086.00
2023-08-08T03:11:03.019Z,98088.69
2023-08-08T03:13:36.443Z,98094.28
2023-08-08T03:16:12.049Z,98097.09
2023-08-08T03:26:39.969Z,98098.34
2023-08-08T03:29:20.971Z,98097.59
2023-08-08T03:31:58.655Z,98096.78
2023-08-08T03:34:40.004Z,98096.03
2023-08-08T03:37:14.882Z,98098.72
2023-08-08T03:39:49.029Z,98089.97
2023-08-08T03:53:27.993Z,98116.75
2023-08-08T03:56:01.356Z,98110.56
2023-08-08T03:58:34.989Z,98111.53
2023-08-08T04:01:08.490Z,98110.69
2023-08-08T04:03:43.051Z,98119.00
2023-08-08T04:06:16.335Z,98125.31
2023-08-08T04:22:32.018Z,98120.50
2023-08-08T04:25:07.290Z,98119.78
2023-08-08T04:27:40.978Z,98120.91
2023-08-08T04:30:14.606Z,98122.72
2023-08-08T04:32:48.012Z,98118.34
2023-08-08T04:35:21.623Z,98121.00
2023-08-08T04:48:12.949Z,98117.88
2023-08-08T04:50:54.016Z,98110.00
2023-08-08T04:53:27.245Z,98110.97
2023-08-08T04:56:01.043Z,98120.84
2023-08-08T04:58:34.253Z,98122.50
2023-08-08T05:01:08.000Z,98123.38
2023-08-08T05:14:19.975Z,98119.78
2023-08-08T05:16:53.221Z,98124.03
2023-08-08T05:19:26.979Z,98136.03
2023-08-08T05:22:00.853Z,98136.47
2023-08-08T05:24:34.976Z,98133.28
2023-08-08T05:27:08.237Z,98138.16
2023-08-08T05:29:50.007Z,98138.59
2023-08-08T05:40:19.955Z,98134.75
2023-08-08T05:42:59.985Z,98138.72
2023-08-08T05:45:35.359Z,98137.34
2023-08-08T05:48:09.042Z,98138.75
2023-08-08T05:50:42.626Z,98139.34
2023-08-08T05:53:15.979Z,98136.53
2023-08-08T05:55:49.218Z,98132.59
2023-08-08T06:08:39.964Z,98142.78
2023-08-08T06:11:20.200Z,98137.97
2023-08-08T06:13:53.257Z,98134.19
2023-08-08T06:16:27.011Z,98131.19
2023-08-08T06:19:00.817Z,98130.94
2023-08-08T06:21:33.991Z,98127.00
2023-08-08T06:34:45.980Z,98133.81
2023-08-08T06:37:19.254Z,98142.56
2023-08-08T06:39:53.017Z,98138.91
2023-08-08T06:42:26.213Z,98142.41
2023-08-08T06:45:03.979Z,98145.97
2023-08-08T06:47:37.266Z,98146.81
2023-08-08T06:50:15.010Z,98145.97
2023-08-08T07:00:40.976Z,98136.22
2023-08-08T07:03:21.182Z,98149.63
2023-08-08T07:05:56.204Z,98140.59
2023-08-08T07:08:30.002Z,98145.97
2023-08-08T07:11:03.475Z,98142.31
2023-08-08T07:13:37.237Z,98143.13
2023-08-08T07:16:18.292Z,98135.09
2023-08-08T07:29:15.947Z,98141.22
2023-08-08T07:31:56.004Z,98138.63
2023-08-08T07:34:29.213Z,98134.13
2023-08-08T07:37:02.969Z,98139.50
2023-08-08T07:39:36.196Z,98139.50
2023-08-08T07:55:51.970Z,98125.94
2023-08-08T07:58:25.215Z,98120.56
2023-08-08T08:01:07.554Z,98138.38
2023-08-08T08:03:41.533Z,98135.84
2023-08-08T08:06:15.002Z,98132.16
2023-08-08T08:08:48.358Z,98144.59
2023-08-08T08:11:23.992Z,98140.06
2023-08-08T08:21:08.963Z,98147.56
2023-08-08T08:23:49.015Z,98138.53
2023-08-08T08:26:24.222Z,98140.09
2023-08-08T08:28:57.973Z,98142.63
2023-08-08T08:31:31.294Z,98134.41
2023-08-08T08:34:04.982Z,98134.41
2023-08-08T08:36:38.331Z,98140.66
2023-08-08T08:49:29.972Z,98117.19
2023-08-08T08:52:11.006Z,98120.59
2023-08-08T08:54:44.512Z,98126.78
2023-08-08T08:57:19.012Z,98135.56
2023-08-08T08:59:52.285Z,98131.75
2023-08-08T09:16:08.139Z,98117.88
2023-08-08T09:18:42.314Z,98120.28
2023-08-08T09:21:16.993Z,98114.63
2023-08-08T09:23:50.246Z,98121.41
2023-08-08T09:26:23.997Z,98118.44
2023-08-08T09:28:57.678Z,98124.22
2023-08-08T09:31:34.002Z,98122.22
2023-08-08T09:41:18.947Z,98123.34
2023-08-08T09:44:01.011Z,98125.03
2023-08-08T09:46:36.364Z,98115.28
2023-08-08T09:49:10.993Z,98123.34
2023-08-08T09:51:45.120Z,98121.66
2023-08-08T09:54:19.971Z,98116.28
2023-08-08T10:10:15.982Z,98125.63
2023-08-08T10:12:56.002Z,98125.78
2023-08-08T10:15:41.570Z,98122.22
2023-08-08T10:18:41.026Z,98125.94
2023-08-08T10:21:14.797Z,98123.38
2023-08-08T10:34:46.987Z,98129.88
2023-08-08T10:37:28.010Z,98135.25
2023-08-08T10:40:02.612Z,98134.56
2023-08-08T10:43:00.002Z,98134.56
2023-08-08T10:45:36.569Z,98137.25
2023-08-08T10:48:19.034Z,98135.53
2023-08-08T10:50:56.360Z,98128.16
2023-08-08T11:03:54.975Z,98123.66
2023-08-08T11:06:37.009Z,98125.91
2023-08-08T11:09:10.738Z,98124.47
2023-08-08T11:11:46.016Z,98116.81
2023-08-08T11:14:21.488Z,98113.53
2023-08-08T11:30:36.285Z,98105.66
2023-08-08T11:35:53.008Z,98108.19
2023-08-08T11:38:26.386Z,98098.63
2023-08-08T11:41:00.005Z,98105.56
2023-08-08T11:54:55.006Z,98102.66
2023-08-08T11:57:32.373Z,98085.69
2023-08-08T12:00:16.013Z,98085.69
2023-08-08T12:02:49.434Z,98089.22
2023-08-08T12:05:23.065Z,98098.31
2023-08-08T12:07:56.414Z,98080.16
2023-08-08T12:10:31.033Z,98081.84
2023-08-08T12:23:44.041Z,98062.50
2023-08-08T12:26:18.202Z,98059.75
2023-08-08T12:28:52.028Z,98032.75
2023-08-08T12:31:25.430Z,98036.59
2023-08-08T12:34:00.375Z,98039.03
2023-08-08T12:36:34.689Z,98026.34
2023-08-08T12:49:25.002Z,98030.63
2023-08-08T12:52:05.030Z,98019.72
2023-08-08T12:54:38.277Z,98024.81
2023-08-08T12:57:12.041Z,98020.13
2023-08-08T12:59:45.294Z,98018.97
2023-08-08T13:16:01.064Z,98022.63
2023-08-08T13:18:34.420Z,98018.28
2023-08-08T13:21:08.975Z,98011.03
2023-08-08T13:23:42.519Z,98014.88
2023-08-08T13:26:16.506Z,98014.72
2023-08-08T13:28:50.394Z,98016.59
2023-08-08T13:31:26.036Z,98008.84
2023-08-08T13:41:57.032Z,98012.38
2023-08-08T13:44:37.017Z,98015.91
2023-08-08T13:47:12.179Z,98024.03
2023-08-08T13:49:46.044Z,98014.91
2023-08-08T13:52:19.269Z,98003.78
2023-08-08T13:54:53.020Z,97997.00
2023-08-08T14:08:43.040Z,97979.44
2023-08-08T14:11:16.300Z,97976.41
2023-08-08T14:13:50.038Z,97982.47
2023-08-08T14:16:23.573Z,97982.81
2023-08-08T14:18:57.009Z,97972.34
2023-08-08T14:21:30.294Z,97977.41
2023-08-08T14:37:47.042Z,97973.66
2023-08-08T14:40:20.309Z,97975.38
2023-08-08T14:42:56.507Z,97976.38
2023-08-08T14:45:30.499Z,97973.66
2023-08-08T14:48:04.078Z,97977.38
2023-08-08T14:50:38.644Z,97975.38
2023-08-08T15:03:29.129Z,97981.03
2023-08-08T15:06:09.034Z,97982.25
2023-08-08T15:08:43.166Z,97983.59
2023-08-08T15:11:17.083Z,97984.97
2023-08-08T15:13:50.756Z,97988.81
2023-08-08T15:16:24.037Z,98004.34
2023-08-08T15:29:36.029Z,98009.44
2023-08-08T15:32:09.291Z,98009.09
2023-08-08T15:34:43.023Z,98001.69
2023-08-08T15:37:16.251Z,97997.97
2023-08-08T15:39:50.034Z,97998.97
2023-08-08T15:42:23.374Z,97994.94
2023-08-08T15:45:00.113Z,97995.25
2023-08-08T15:58:11.064Z,98008.81
2023-08-08T16:00:46.288Z,98014.72
2023-08-08T16:03:20.190Z,98024.88
2023-08-08T16:05:54.293Z,98020.97
2023-08-08T16:08:28.009Z,98020.31
2023-08-08T16:11:01.249Z,98027.06
2023-08-08T16:23:52.014Z,98047.66
2023-08-08T16:26:32.043Z,98031.78
2023-08-08T16:29:05.298Z,98036.50
2023-08-08T16:31:39.046Z,98034.84
2023-08-08T16:34:12.444Z,98035.16
2023-08-08T16:36:46.056Z,98036.34
2023-08-08T16:49:59.071Z,98038.47
2023-08-08T16:52:32.303Z,98033.25
2023-08-08T16:55:06.039Z,98038.00
2023-08-08T16:57:39.374Z,98041.34
2023-08-08T17:00:15.038Z,98044.78
2023-08-08T17:02:48.274Z,98034.47
2023-08-08T17:05:24.034Z,98044.63
2023-08-08T17:15:54.020Z,98052.38
2023-08-08T17:18:34.067Z,98052.22
2023-08-08T17:21:09.238Z,98053.91
2023-08-08T17:23:43.035Z,98060.78
2023-08-08T17:26:16.405Z,98057.88
2023-08-08T17:28:50.062Z,98046.88
2023-08-08T17:31:23.366Z,98063.59
2023-08-08T17:44:17.017Z,98068.16
2023-08-08T17:46:57.041Z,98082.41
2023-08-08T17:49:30.356Z,98076.53
2023-08-08T17:52:04.266Z,98080.41
2023-08-08T17:54:37.271Z,98069.59
2023-08-08T17:57:11.034Z,98068.75
2023-08-08T18:10:30.034Z,98083.28
2023-08-08T18:13:03.861Z,98076.38
2023-08-08T18:15:37.060Z,98082.91
2023-08-08T18:18:10.601Z,98079.31
2023-08-08T18:20:44.042Z,98077.41
2023-08-08T18:23:17.867Z,98068.31
2023-08-08T18:25:53.065Z,98078.69
2023-08-08T18:36:16.046Z,98095.75
2023-08-08T18:38:56.073Z,98104.47
2023-08-08T18:41:31.229Z,98100.69
2023-08-08T18:44:05.081Z,98116.34
2023-08-08T18:46:38.345Z,98107.72
2023-08-08T18:49:12.042Z,98109.88
2023-08-08T18:51:45.408Z,98116.44
2023-08-08T19:04:36.043Z,98118.84
2023-08-08T19:07:16.047Z,98123.69
2023-08-08T19:09:49.270Z,98118.59
2023-08-08T19:12:23.071Z,98113.53
2023-08-08T19:14:56.383Z,98125.63
2023-08-08T19:31:12.033Z,98117.09
2023-08-08T19:33:59.649Z,98120.94
2023-08-08T19:36:45.025Z,98122.91
2023-08-08T19:39:18.434Z,98117.53
2023-08-08T19:41:52.037Z,98116.00
2023-08-08T19:44:25.773Z,98123.38
2023-08-08T19:47:02.339Z,98125.34
2023-08-08T19:56:48.003Z,98113.50
2023-08-08T19:59:29.079Z,98111.81
2023-08-08T20:02:04.377Z,98115.50
2023-08-08T20:04:38.051Z,98107.56
2023-08-08T20:07:11.343Z,98108.72
2023-08-08T20:09:45.026Z,98108.84
2023-08-08T20:23:18.065Z,98117.69
2023-08-08T20:25:51.413Z,98129.47
2023-08-08T20:28:25.039Z,98115.31
2023-08-08T20:30:58.563Z,98121.69
2023-08-08T20:33:32.055Z,98111.09
2023-08-08T20:36:05.334Z,98115.63
2023-08-08T20:54:52.609Z,98117.38
2023-08-08T20:57:33.050Z,98128.28
2023-08-08T21:00:07.991Z,98125.59
2023-08-08T21:02:41.144Z,98130.97
2023-08-08T21:05:14.408Z,98124.72
2023-08-08T21:18:05.043Z,98127.59
2023-08-08T21:20:45.034Z,98127.59
2023-08-08T21:23:18.285Z,98125.88
2023-08-08T21:25:52.036Z,98132.25
2023-08-08T21:28:25.321Z,98132.25
2023-08-08T21:30:59.089Z,98134.28
2023-08-08T21:44:12.041Z,98135.53
2023-08-08T21:46:45.337Z,98135.53
2023-08-08T21:49:19.055Z,98133.00
2023-08-08T21:51:52.283Z,98142.06
2023-08-08T21:54:26.041Z,98135.03
2023-08-08T21:56:59.846Z,98137.84
2023-08-08T22:10:20.026Z,98151.50
2023-08-08T22:13:00.027Z,98144.41
2023-08-08T22:15:35.979Z,98147.41
2023-08-08T22:18:19.123Z,98147.84
2023-08-08T22:20:52.289Z,98141.75
2023-08-08T22:23:26.052Z,98141.63
2023-08-08T22:26:01.236Z,98139.94
2023-08-08T22:38:50.014Z,98146.47
2023-08-08T22:41:32.075Z,98150.13
2023-08-08T22:44:06.734Z,98151.94
2023-08-08T22:46:40.072Z,98157.47
2023-08-08T22:49:13.368Z,98155.78
2023-08-08T22:51:47.059Z,98143.38
2023-08-08T23:04:59.036Z,98148.47
2023-08-08T23:07:32.329Z,98135.19
2023-08-08T23:10:06.260Z,98144.22
2023-08-08T23:12:39.312Z,98139.69
2023-08-08T23:15:14.096Z,98145.06
2023-08-08T23:31:51.036Z,98143.94
2023-08-08T23:34:31.042Z,98151.00
2023-08-08T23:37:06.388Z,98157.38
2023-08-08T23:39:48.059Z,98152.13
2023-08-08T23:42:21.307Z,98158.66
2023-08-08T23:44:55.062Z,98164.03
2023-08-08T23:58:07.022Z,98171.69
